Bourbonnais, Illinois
Current Conditions -  °F | °C
As of 6:55 PM on Tuesday 21 Oct 2014 (Local Time) from KIKK Reporting Station
Overcast Overcast  
Wind Chill: 50°   Ceiling: 2900
Heat Index: 50°   Visibility: 10mi
Dew Point: 41°   Wind: 6mph
Humidity: 71%   Direction: 10°N
Pressure: 30.22"   Gusts: NA
Location:  41.15°N, 87.88°W
Report Text: KIKK 212355Z AUTO 01005KT 10SM OVC029 10/05 A3022 RMK AO2 T01000050 10126 20098
Loading
Personal Weather Stations






























Interactive Weather Map
Tropical Storm Tracking
New forecast layout! Learn more

10-Day Weather Forecast

Advertisements
Track Severe Weather on mobile